sensor_id;sensor_type;location;lat;lon;timestamp;P1;durP1;ratioP1;P2;durP2;ratioP2
12958;SDS011;6544;51.666;6.634;2023-02-25T00:02:15;19.43;;;3.97;;
12958;SDS011;6544;51.666;6.634;2023-02-25T00:04:42;16.40;;;4.13;;
12958;SDS011;6544;51.666;6.634;2023-02-25T00:07:09;16.50;;;3.63;;
12958;SDS011;6544;51.666;6.634;2023-02-25T00:09:35;17.03;;;3.67;;
12958;SDS011;6544;51.666;6.634;2023-02-25T00:12:02;16.77;;;3.70;;
12958;SDS011;6544;51.666;6.634;2023-02-25T00:14:29;16.23;;;3.63;;
12958;SDS011;6544;51.666;6.634;2023-02-25T00:16:56;19.07;;;3.60;;
12958;SDS011;6544;51.666;6.634;2023-02-25T00:19:25;19.60;;;3.97;;
12958;SDS011;6544;51.666;6.634;2023-02-25T00:21:52;20.70;;;3.77;;
12958;SDS011;6544;51.666;6.634;2023-02-25T00:24:19;17.13;;;3.63;;
12958;SDS011;6544;51.666;6.634;2023-02-25T00:26:45;15.50;;;3.43;;
12958;SDS011;6544;51.666;6.634;2023-02-25T00:29:12;19.03;;;3.67;;
12958;SDS011;6544;51.666;6.634;2023-02-25T00:31:39;12.50;;;3.30;;
12958;SDS011;6544;51.666;6.634;2023-02-25T00:34:06;14.53;;;3.17;;
12958;SDS011;6544;51.666;6.634;2023-02-25T00:36:34;16.10;;;4.03;;
12958;SDS011;6544;51.666;6.634;2023-02-25T00:39:01;18.20;;;3.70;;
12958;SDS011;6544;51.666;6.634;2023-02-25T00:41:28;19.27;;;4.13;;
12958;SDS011;6544;51.666;6.634;2023-02-25T00:43:56;18.07;;;4.10;;
12958;SDS011;6544;51.666;6.634;2023-02-25T00:46:25;19.80;;;3.97;;
12958;SDS011;6544;51.666;6.634;2023-02-25T00:48:53;15.27;;;3.57;;
12958;SDS011;6544;51.666;6.634;2023-02-25T00:51:21;19.80;;;3.70;;
12958;SDS011;6544;51.666;6.634;2023-02-25T00:53:51;13.47;;;3.33;;
12958;SDS011;6544;51.666;6.634;2023-02-25T00:56:21;16.83;;;3.50;;
12958;SDS011;6544;51.666;6.634;2023-02-25T00:58:49;17.13;;;3.50;;
12958;SDS011;6544;51.666;6.634;2023-02-25T01:01:18;13.83;;;3.13;;
12958;SDS011;6544;51.666;6.634;2023-02-25T01:03:46;13.57;;;3.30;;
12958;SDS011;6544;51.666;6.634;2023-02-25T01:06:14;15.67;;;3.87;;
12958;SDS011;6544;51.666;6.634;2023-02-25T01:08:43;17.07;;;2.93;;
12958;SDS011;6544;51.666;6.634;2023-02-25T01:11:13;10.07;;;3.03;;
12958;SDS011;6544;51.666;6.634;2023-02-25T01:13:45;10.20;;;2.70;;
12958;SDS011;6544;51.666;6.634;2023-02-25T01:16:13;14.83;;;2.80;;
12958;SDS011;6544;51.666;6.634;2023-02-25T01:18:42;17.87;;;3.70;;
12958;SDS011;6544;51.666;6.634;2023-02-25T01:21:13;13.73;;;3.37;;
12958;SDS011;6544;51.666;6.634;2023-02-25T01:23:42;12.57;;;3.47;;
12958;SDS011;6544;51.666;6.634;2023-02-25T01:26:10;20.37;;;3.60;;
12958;SDS011;6544;51.666;6.634;2023-02-25T01:28:38;15.20;;;3.73;;
12958;SDS011;6544;51.666;6.634;2023-02-25T01:31:05;18.93;;;4.20;;
12958;SDS011;6544;51.666;6.634;2023-02-25T01:33:33;23.77;;;4.20;;
12958;SDS011;6544;51.666;6.634;2023-02-25T01:36:02;18.40;;;3.40;;
12958;SDS011;6544;51.666;6.634;2023-02-25T01:38:30;17.80;;;3.53;;
12958;SDS011;6544;51.666;6.634;2023-02-25T01:40:57;18.20;;;3.97;;
12958;SDS011;6544;51.666;6.634;2023-02-25T01:43:25;14.97;;;4.03;;
12958;SDS011;6544;51.666;6.634;2023-02-25T01:45:54;20.03;;;3.33;;
12958;SDS011;6544;51.666;6.634;2023-02-25T01:48:21;14.27;;;4.00;;
12958;SDS011;6544;51.666;6.634;2023-02-25T01:50:51;15.97;;;3.60;;
12958;SDS011;6544;51.666;6.634;2023-02-25T01:53:23;17.33;;;4.13;;
12958;SDS011;6544;51.666;6.634;2023-02-25T01:55:52;19.20;;;4.07;;
12958;SDS011;6544;51.666;6.634;2023-02-25T01:58:21;18.80;;;3.93;;
12958;SDS011;6544;51.666;6.634;2023-02-25T02:00:48;20.73;;;3.77;;
12958;SDS011;6544;51.666;6.634;2023-02-25T02:03:21;13.63;;;3.40;;
12958;SDS011;6544;51.666;6.634;2023-02-25T02:05:55;13.83;;;3.20;;
12958;SDS011;6544;51.666;6.634;2023-02-25T02:08:29;15.73;;;3.77;;
12958;SDS011;6544;51.666;6.634;2023-02-25T02:10:58;18.70;;;3.50;;
12958;SDS011;6544;51.666;6.634;2023-02-25T02:13:25;18.03;;;3.57;;
12958;SDS011;6544;51.666;6.634;2023-02-25T02:15:55;16.67;;;3.50;;
12958;SDS011;6544;51.666;6.634;2023-02-25T02:18:34;17.07;;;4.00;;
12958;SDS011;6544;51.666;6.634;2023-02-25T02:21:07;17.93;;;3.77;;
12958;SDS011;6544;51.666;6.634;2023-02-25T02:27:10;14.47;;;3.60;;
12958;SDS011;6544;51.666;6.634;2023-02-25T02:30:01;16.77;;;3.90;;
12958;SDS011;6544;51.666;6.634;2023-02-25T02:32:45;13.40;;;3.80;;
12958;SDS011;6544;51.666;6.634;2023-02-25T02:35:19;13.23;;;3.43;;
12958;SDS011;6544;51.666;6.634;2023-02-25T02:37:53;16.60;;;3.63;;
12958;SDS011;6544;51.666;6.634;2023-02-25T02:40:32;18.80;;;3.90;;
12958;SDS011;6544;51.666;6.634;2023-02-25T02:43:08;21.00;;;4.23;;
12958;SDS011;6544;51.666;6.634;2023-02-25T02:45:43;19.63;;;3.77;;
12958;SDS011;6544;51.666;6.634;2023-02-25T02:48:16;20.90;;;4.17;;
12958;SDS011;6544;51.666;6.634;2023-02-25T02:50:48;17.03;;;3.83;;
12958;SDS011;6544;51.666;6.634;2023-02-25T02:53:19;17.37;;;3.50;;
12958;SDS011;6544;51.666;6.634;2023-02-25T02:55:49;17.90;;;3.50;;
12958;SDS011;6544;51.666;6.634;2023-02-25T02:58:20;18.27;;;4.87;;
12958;SDS011;6544;51.666;6.634;2023-02-25T03:00:52;15.10;;;3.50;;
12958;SDS011;6544;51.666;6.634;2023-02-25T03:03:26;21.83;;;3.80;;
12958;SDS011;6544;51.666;6.634;2023-02-25T03:06:01;15.63;;;3.37;;
12958;SDS011;6544;51.666;6.634;2023-02-25T03:08:31;22.07;;;4.30;;
12958;SDS011;6544;51.666;6.634;2023-02-25T03:11:01;16.63;;;3.93;;
12958;SDS011;6544;51.666;6.634;2023-02-25T03:13:30;22.13;;;4.10;;
12958;SDS011;6544;51.666;6.634;2023-02-25T03:15:57;16.57;;;3.27;;
12958;SDS011;6544;51.666;6.634;2023-02-25T03:18:29;20.40;;;4.00;;
12958;SDS011;6544;51.666;6.634;2023-02-25T03:21:01;18.70;;;4.13;;
12958;SDS011;6544;51.666;6.634;2023-02-25T03:23:34;20.83;;;4.57;;
12958;SDS011;6544;51.666;6.634;2023-02-25T03:26:07;17.00;;;3.50;;
12958;SDS011;6544;51.666;6.634;2023-02-25T03:28:39;18.47;;;3.60;;
12958;SDS011;6544;51.666;6.634;2023-02-25T03:31:11;13.93;;;3.50;;
12958;SDS011;6544;51.666;6.634;2023-02-25T03:33:47;25.77;;;4.13;;
12958;SDS011;6544;51.666;6.634;2023-02-25T03:36:18;15.53;;;3.33;;
12958;SDS011;6544;51.666;6.634;2023-02-25T03:38:50;14.33;;;3.00;;
12958;SDS011;6544;51.666;6.634;2023-02-25T03:41:20;15.87;;;3.57;;
12958;SDS011;6544;51.666;6.634;2023-02-25T03:43:51;18.67;;;3.43;;
12958;SDS011;6544;51.666;6.634;2023-02-25T03:46:20;16.00;;;3.50;;
12958;SDS011;6544;51.666;6.634;2023-02-25T03:48:50;14.97;;;3.20;;
12958;SDS011;6544;51.666;6.634;2023-02-25T03:51:20;15.17;;;3.57;;
12958;SDS011;6544;51.666;6.634;2023-02-25T03:53:52;18.87;;;3.70;;
12958;SDS011;6544;51.666;6.634;2023-02-25T03:56:19;16.03;;;3.10;;
12958;SDS011;6544;51.666;6.634;2023-02-25T03:58:46;16.23;;;3.40;;
12958;SDS011;6544;51.666;6.634;2023-02-25T04:01:14;15.00;;;2.93;;
12958;SDS011;6544;51.666;6.634;2023-02-25T04:03:44;14.47;;;3.57;;
12958;SDS011;6544;51.666;6.634;2023-02-25T04:06:12;14.27;;;3.07;;
12958;SDS011;6544;51.666;6.634;2023-02-25T04:08:40;12.80;;;3.13;;
12958;SDS011;6544;51.666;6.634;2023-02-25T04:11:07;16.93;;;3.17;;
12958;SDS011;6544;51.666;6.634;2023-02-25T04:13:34;23.83;;;4.23;;
12958;SDS011;6544;51.666;6.634;2023-02-25T04:16:01;17.93;;;3.70;;
12958;SDS011;6544;51.666;6.634;2023-02-25T04:18:28;13.57;;;3.20;;
12958;SDS011;6544;51.666;6.634;2023-02-25T04:20:55;17.23;;;3.90;;
12958;SDS011;6544;51.666;6.634;2023-02-25T04:23:23;12.97;;;3.50;;
12958;SDS011;6544;51.666;6.634;2023-02-25T04:25:50;16.07;;;3.20;;
12958;SDS011;6544;51.666;6.634;2023-02-25T04:28:17;14.80;;;3.87;;
12958;SDS011;6544;51.666;6.634;2023-02-25T04:30:43;16.70;;;3.60;;
12958;SDS011;6544;51.666;6.634;2023-02-25T04:33:10;13.07;;;3.37;;
12958;SDS011;6544;51.666;6.634;2023-02-25T04:35:37;17.17;;;3.20;;
12958;SDS011;6544;51.666;6.634;2023-02-25T04:38:04;16.07;;;3.37;;
12958;SDS011;6544;51.666;6.634;2023-02-25T04:40:33;15.47;;;3.80;;
12958;SDS011;6544;51.666;6.634;2023-02-25T04:42:59;15.67;;;3.97;;
12958;SDS011;6544;51.666;6.634;2023-02-25T04:45:26;17.37;;;3.57;;
12958;SDS011;6544;51.666;6.634;2023-02-25T04:47:54;19.37;;;3.50;;
12958;SDS011;6544;51.666;6.634;2023-02-25T04:50:22;18.37;;;3.67;;
12958;SDS011;6544;51.666;6.634;2023-02-25T04:52:49;14.47;;;3.40;;
12958;SDS011;6544;51.666;6.634;2023-02-25T04:55:16;19.63;;;3.77;;
12958;SDS011;6544;51.666;6.634;2023-02-25T04:57:45;25.43;;;4.40;;
12958;SDS011;6544;51.666;6.634;2023-02-25T05:00:13;29.30;;;3.87;;
12958;SDS011;6544;51.666;6.634;2023-02-25T05:02:43;19.87;;;4.00;;
12958;SDS011;6544;51.666;6.634;2023-02-25T05:05:11;18.80;;;3.77;;
12958;SDS011;6544;51.666;6.634;2023-02-25T05:07:38;19.73;;;4.27;;
12958;SDS011;6544;51.666;6.634;2023-02-25T05:10:06;20.17;;;3.80;;
12958;SDS011;6544;51.666;6.634;2023-02-25T05:12:35;19.13;;;4.13;;
12958;SDS011;6544;51.666;6.634;2023-02-25T05:15:03;18.83;;;3.90;;
12958;SDS011;6544;51.666;6.634;2023-02-25T05:17:32;19.43;;;3.83;;
12958;SDS011;6544;51.666;6.634;2023-02-25T05:19:59;22.90;;;4.60;;
12958;SDS011;6544;51.666;6.634;2023-02-25T05:22:29;21.57;;;4.10;;
12958;SDS011;6544;51.666;6.634;2023-02-25T05:24:56;23.63;;;3.67;;
12958;SDS011;6544;51.666;6.634;2023-02-25T05:27:22;17.60;;;4.00;;
12958;SDS011;6544;51.666;6.634;2023-02-25T05:29:49;17.03;;;4.20;;
12958;SDS011;6544;51.666;6.634;2023-02-25T05:32:18;15.00;;;3.73;;
12958;SDS011;6544;51.666;6.634;2023-02-25T05:34:44;22.17;;;3.97;;
12958;SDS011;6544;51.666;6.634;2023-02-25T05:37:14;27.10;;;4.07;;
12958;SDS011;6544;51.666;6.634;2023-02-25T05:39:41;18.27;;;4.13;;
12958;SDS011;6544;51.666;6.634;2023-02-25T05:42:08;24.97;;;3.80;;
12958;SDS011;6544;51.666;6.634;2023-02-25T05:44:35;19.13;;;3.87;;
12958;SDS011;6544;51.666;6.634;2023-02-25T05:47:02;15.43;;;3.43;;
12958;SDS011;6544;51.666;6.634;2023-02-25T05:49:30;18.43;;;4.03;;
12958;SDS011;6544;51.666;6.634;2023-02-25T05:51:57;23.07;;;4.27;;
12958;SDS011;6544;51.666;6.634;2023-02-25T05:54:24;24.27;;;4.17;;
12958;SDS011;6544;51.666;6.634;2023-02-25T05:56:51;23.67;;;4.00;;
12958;SDS011;6544;51.666;6.634;2023-02-25T05:59:18;26.20;;;4.13;;
12958;SDS011;6544;51.666;6.634;2023-02-25T06:01:45;23.13;;;3.83;;
12958;SDS011;6544;51.666;6.634;2023-02-25T06:04:12;22.77;;;4.50;;
12958;SDS011;6544;51.666;6.634;2023-02-25T06:06:40;18.07;;;4.07;;
12958;SDS011;6544;51.666;6.634;2023-02-25T06:09:07;21.07;;;4.90;;
12958;SDS011;6544;51.666;6.634;2023-02-25T06:11:34;21.27;;;4.70;;
12958;SDS011;6544;51.666;6.634;2023-02-25T06:14:01;22.53;;;4.73;;
12958;SDS011;6544;51.666;6.634;2023-02-25T06:16:28;24.10;;;4.07;;
12958;SDS011;6544;51.666;6.634;2023-02-25T06:18:56;21.73;;;4.77;;
12958;SDS011;6544;51.666;6.634;2023-02-25T06:21:24;17.13;;;4.07;;
12958;SDS011;6544;51.666;6.634;2023-02-25T06:23:52;19.43;;;4.03;;
12958;SDS011;6544;51.666;6.634;2023-02-25T06:26:19;19.70;;;4.30;;
12958;SDS011;6544;51.666;6.634;2023-02-25T06:28:47;18.27;;;3.80;;
12958;SDS011;6544;51.666;6.634;2023-02-25T06:31:14;18.60;;;4.10;;
12958;SDS011;6544;51.666;6.634;2023-02-25T06:33:42;17.73;;;3.50;;
12958;SDS011;6544;51.666;6.634;2023-02-25T06:36:10;20.67;;;3.90;;
12958;SDS011;6544;51.666;6.634;2023-02-25T06:38:38;17.37;;;4.30;;
12958;SDS011;6544;51.666;6.634;2023-02-25T06:41:07;26.00;;;4.20;;
12958;SDS011;6544;51.666;6.634;2023-02-25T06:43:35;22.63;;;4.60;;
12958;SDS011;6544;51.666;6.634;2023-02-25T06:46:04;24.83;;;4.27;;
12958;SDS011;6544;51.666;6.634;2023-02-25T06:48:31;18.83;;;3.90;;
12958;SDS011;6544;51.666;6.634;2023-02-25T06:50:58;20.10;;;4.30;;
12958;SDS011;6544;51.666;6.634;2023-02-25T06:53:26;24.83;;;4.80;;
12958;SDS011;6544;51.666;6.634;2023-02-25T06:55:53;21.17;;;4.50;;
12958;SDS011;6544;51.666;6.634;2023-02-25T06:58:21;23.77;;;4.03;;
12958;SDS011;6544;51.666;6.634;2023-02-25T07:00:48;22.20;;;4.50;;
12958;SDS011;6544;51.666;6.634;2023-02-25T07:03:15;19.07;;;3.97;;
12958;SDS011;6544;51.666;6.634;2023-02-25T07:05:42;18.67;;;3.73;;
12958;SDS011;6544;51.666;6.634;2023-02-25T07:08:09;24.73;;;4.20;;
12958;SDS011;6544;51.666;6.634;2023-02-25T07:10:36;19.87;;;3.97;;
12958;SDS011;6544;51.666;6.634;2023-02-25T07:13:04;24.23;;;4.80;;
12958;SDS011;6544;51.666;6.634;2023-02-25T07:15:33;23.07;;;4.13;;
12958;SDS011;6544;51.666;6.634;2023-02-25T07:18:00;18.40;;;4.30;;
12958;SDS011;6544;51.666;6.634;2023-02-25T07:20:27;23.23;;;4.77;;
12958;SDS011;6544;51.666;6.634;2023-02-25T07:22:54;21.97;;;4.40;;
12958;SDS011;6544;51.666;6.634;2023-02-25T07:25:21;17.87;;;3.80;;
12958;SDS011;6544;51.666;6.634;2023-02-25T07:27:48;21.83;;;3.97;;
12958;SDS011;6544;51.666;6.634;2023-02-25T07:30:15;22.87;;;3.90;;
12958;SDS011;6544;51.666;6.634;2023-02-25T07:32:43;23.10;;;4.67;;
12958;SDS011;6544;51.666;6.634;2023-02-25T07:35:10;19.57;;;3.60;;
12958;SDS011;6544;51.666;6.634;2023-02-25T07:37:37;19.67;;;3.90;;
12958;SDS011;6544;51.666;6.634;2023-02-25T07:40:04;20.00;;;4.00;;
12958;SDS011;6544;51.666;6.634;2023-02-25T07:42:36;22.93;;;4.40;;
12958;SDS011;6544;51.666;6.634;2023-02-25T07:45:04;18.13;;;4.23;;
12958;SDS011;6544;51.666;6.634;2023-02-25T07:47:32;20.77;;;4.17;;
12958;SDS011;6544;51.666;6.634;2023-02-25T07:50:00;19.07;;;4.07;;
12958;SDS011;6544;51.666;6.634;2023-02-25T07:52:27;21.10;;;4.03;;
12958;SDS011;6544;51.666;6.634;2023-02-25T07:54:54;19.80;;;4.30;;
12958;SDS011;6544;51.666;6.634;2023-02-25T07:57:21;25.13;;;3.63;;
12958;SDS011;6544;51.666;6.634;2023-02-25T07:59:48;24.13;;;3.83;;
12958;SDS011;6544;51.666;6.634;2023-02-25T08:02:14;21.33;;;4.73;;
12958;SDS011;6544;51.666;6.634;2023-02-25T08:04:41;18.97;;;3.70;;
12958;SDS011;6544;51.666;6.634;2023-02-25T08:07:09;18.27;;;4.40;;
12958;SDS011;6544;51.666;6.634;2023-02-25T08:09:36;25.70;;;3.50;;
12958;SDS011;6544;51.666;6.634;2023-02-25T08:12:05;13.27;;;3.43;;
12958;SDS011;6544;51.666;6.634;2023-02-25T08:14:32;26.83;;;4.03;;
12958;SDS011;6544;51.666;6.634;2023-02-25T08:16:59;26.03;;;5.33;;
12958;SDS011;6544;51.666;6.634;2023-02-25T08:19:27;16.47;;;4.23;;
12958;SDS011;6544;51.666;6.634;2023-02-25T08:21:54;24.37;;;4.30;;
12958;SDS011;6544;51.666;6.634;2023-02-25T08:24:22;22.40;;;4.33;;
12958;SDS011;6544;51.666;6.634;2023-02-25T08:26:50;21.33;;;4.00;;
12958;SDS011;6544;51.666;6.634;2023-02-25T08:29:18;24.60;;;4.47;;
12958;SDS011;6544;51.666;6.634;2023-02-25T08:31:45;32.63;;;4.30;;
12958;SDS011;6544;51.666;6.634;2023-02-25T08:34:12;20.00;;;4.27;;
12958;SDS011;6544;51.666;6.634;2023-02-25T08:36:39;22.13;;;4.10;;
12958;SDS011;6544;51.666;6.634;2023-02-25T08:39:06;18.63;;;4.37;;
12958;SDS011;6544;51.666;6.634;2023-02-25T08:41:36;24.37;;;5.37;;
12958;SDS011;6544;51.666;6.634;2023-02-25T08:44:03;17.47;;;4.20;;
12958;SDS011;6544;51.666;6.634;2023-02-25T08:46:30;16.63;;;3.60;;
12958;SDS011;6544;51.666;6.634;2023-02-25T08:48:57;30.00;;;4.80;;
12958;SDS011;6544;51.666;6.634;2023-02-25T08:51:25;19.23;;;4.17;;
12958;SDS011;6544;51.666;6.634;2023-02-25T08:53:58;16.20;;;3.87;;
12958;SDS011;6544;51.666;6.634;2023-02-25T08:56:26;15.87;;;3.87;;
12958;SDS011;6544;51.666;6.634;2023-02-25T08:58:54;19.10;;;3.70;;
12958;SDS011;6544;51.666;6.634;2023-02-25T09:01:21;14.47;;;3.83;;
12958;SDS011;6544;51.666;6.634;2023-02-25T09:03:48;22.37;;;4.17;;
12958;SDS011;6544;51.666;6.634;2023-02-25T09:06:18;17.40;;;3.60;;
12958;SDS011;6544;51.666;6.634;2023-02-25T09:08:46;19.57;;;3.40;;
12958;SDS011;6544;51.666;6.634;2023-02-25T09:11:13;18.33;;;3.53;;
12958;SDS011;6544;51.666;6.634;2023-02-25T09:13:40;17.30;;;3.57;;
12958;SDS011;6544;51.666;6.634;2023-02-25T09:16:09;14.40;;;3.13;;
12958;SDS011;6544;51.666;6.634;2023-02-25T09:18:41;11.00;;;3.00;;
12958;SDS011;6544;51.666;6.634;2023-02-25T09:21:08;11.70;;;2.93;;
12958;SDS011;6544;51.666;6.634;2023-02-25T09:23:36;12.53;;;2.47;;
12958;SDS011;6544;51.666;6.634;2023-02-25T09:26:03;7.70;;;2.33;;
12958;SDS011;6544;51.666;6.634;2023-02-25T09:28:33;12.17;;;2.70;;
12958;SDS011;6544;51.666;6.634;2023-02-25T09:30:59;10.40;;;2.43;;
12958;SDS011;6544;51.666;6.634;2023-02-25T09:33:29;9.93;;;2.73;;
12958;SDS011;6544;51.666;6.634;2023-02-25T09:36:02;9.80;;;2.67;;
12958;SDS011;6544;51.666;6.634;2023-02-25T09:38:31;8.37;;;2.60;;
12958;SDS011;6544;51.666;6.634;2023-02-25T09:40:58;13.57;;;3.53;;
12958;SDS011;6544;51.666;6.634;2023-02-25T09:43:26;8.53;;;2.43;;
12958;SDS011;6544;51.666;6.634;2023-02-25T09:46:00;11.13;;;3.03;;
12958;SDS011;6544;51.666;6.634;2023-02-25T09:48:32;9.20;;;2.37;;
12958;SDS011;6544;51.666;6.634;2023-02-25T09:51:02;10.57;;;3.13;;
12958;SDS011;6544;51.666;6.634;2023-02-25T09:53:33;11.30;;;3.00;;
12958;SDS011;6544;51.666;6.634;2023-02-25T09:56:05;12.67;;;2.57;;
12958;SDS011;6544;51.666;6.634;2023-02-25T09:58:35;7.90;;;3.20;;
12958;SDS011;6544;51.666;6.634;2023-02-25T10:01:06;11.27;;;2.97;;
12958;SDS011;6544;51.666;6.634;2023-02-25T10:03:44;7.00;;;2.77;;
12958;SDS011;6544;51.666;6.634;2023-02-25T10:06:19;9.10;;;2.90;;
12958;SDS011;6544;51.666;6.634;2023-02-25T10:08:53;10.40;;;2.57;;
12958;SDS011;6544;51.666;6.634;2023-02-25T10:11:30;5.77;;;2.17;;
12958;SDS011;6544;51.666;6.634;2023-02-25T10:14:10;9.63;;;2.80;;
12958;SDS011;6544;51.666;6.634;2023-02-25T10:16:46;7.03;;;2.20;;
12958;SDS011;6544;51.666;6.634;2023-02-25T10:19:25;9.03;;;2.50;;
12958;SDS011;6544;51.666;6.634;2023-02-25T10:24:59;6.33;;;2.40;;
12958;SDS011;6544;51.666;6.634;2023-02-25T10:27:31;10.97;;;2.80;;
12958;SDS011;6544;51.666;6.634;2023-02-25T10:30:04;14.10;;;2.57;;
12958;SDS011;6544;51.666;6.634;2023-02-25T10:32:37;8.87;;;3.00;;
12958;SDS011;6544;51.666;6.634;2023-02-25T10:35:13;8.70;;;2.60;;
12958;SDS011;6544;51.666;6.634;2023-02-25T10:37:42;13.13;;;2.40;;
12958;SDS011;6544;51.666;6.634;2023-02-25T10:40:12;10.07;;;2.50;;
12958;SDS011;6544;51.666;6.634;2023-02-25T10:42:45;7.33;;;2.27;;
12958;SDS011;6544;51.666;6.634;2023-02-25T10:45:16;6.90;;;2.10;;
12958;SDS011;6544;51.666;6.634;2023-02-25T10:47:46;9.80;;;2.10;;
12958;SDS011;6544;51.666;6.634;2023-02-25T10:50:20;10.33;;;2.60;;
12958;SDS011;6544;51.666;6.634;2023-02-25T10:52:55;5.87;;;2.50;;
12958;SDS011;6544;51.666;6.634;2023-02-25T10:55:44;12.23;;;2.80;;
12958;SDS011;6544;51.666;6.634;2023-02-25T10:58:20;6.20;;;1.90;;
12958;SDS011;6544;51.666;6.634;2023-02-25T11:00:57;8.17;;;2.03;;
12958;SDS011;6544;51.666;6.634;2023-02-25T11:03:28;6.13;;;2.30;;
12958;SDS011;6544;51.666;6.634;2023-02-25T11:06:11;7.07;;;1.90;;
12958;SDS011;6544;51.666;6.634;2023-02-25T11:08:43;7.77;;;2.30;;
12958;SDS011;6544;51.666;6.634;2023-02-25T11:11:14;7.97;;;2.30;;
12958;SDS011;6544;51.666;6.634;2023-02-25T11:13:43;7.77;;;2.67;;
12958;SDS011;6544;51.666;6.634;2023-02-25T11:16:18;8.53;;;2.13;;
12958;SDS011;6544;51.666;6.634;2023-02-25T11:18:49;5.37;;;1.70;;
12958;SDS011;6544;51.666;6.634;2023-02-25T11:21:26;7.23;;;2.10;;
12958;SDS011;6544;51.666;6.634;2023-02-25T11:23:57;9.13;;;2.20;;
12958;SDS011;6544;51.666;6.634;2023-02-25T11:26:28;4.97;;;1.73;;
12958;SDS011;6544;51.666;6.634;2023-02-25T11:28:57;6.50;;;1.77;;
12958;SDS011;6544;51.666;6.634;2023-02-25T11:31:28;8.50;;;2.10;;
12958;SDS011;6544;51.666;6.634;2023-02-25T11:34:01;9.53;;;2.30;;
12958;SDS011;6544;51.666;6.634;2023-02-25T11:36:33;7.90;;;2.30;;
12958;SDS011;6544;51.666;6.634;2023-02-25T11:39:04;7.37;;;2.43;;
12958;SDS011;6544;51.666;6.634;2023-02-25T11:41:38;6.60;;;2.27;;
12958;SDS011;6544;51.666;6.634;2023-02-25T11:44:27;6.10;;;2.07;;
12958;SDS011;6544;51.666;6.634;2023-02-25T11:46:57;8.47;;;2.57;;
12958;SDS011;6544;51.666;6.634;2023-02-25T11:49:41;5.73;;;1.90;;
12958;SDS011;6544;51.666;6.634;2023-02-25T11:52:26;8.10;;;1.90;;
12958;SDS011;6544;51.666;6.634;2023-02-25T11:55:04;6.93;;;1.93;;
12958;SDS011;6544;51.666;6.634;2023-02-25T11:57:38;8.20;;;2.43;;
12958;SDS011;6544;51.666;6.634;2023-02-25T12:00:21;10.00;;;3.30;;
12958;SDS011;6544;51.666;6.634;2023-02-25T12:02:55;9.27;;;2.20;;
12958;SDS011;6544;51.666;6.634;2023-02-25T12:20:34;8.67;;;1.93;;
12958;SDS011;6544;51.666;6.634;2023-02-25T12:23:39;9.20;;;2.43;;
12958;SDS011;6544;51.666;6.634;2023-02-25T12:26:35;5.20;;;2.30;;
12958;SDS011;6544;51.666;6.634;2023-02-25T12:29:19;9.03;;;2.10;;
12958;SDS011;6544;51.666;6.634;2023-02-25T12:32:09;5.80;;;2.23;;
12958;SDS011;6544;51.666;6.634;2023-02-25T12:34:56;7.90;;;2.27;;
12958;SDS011;6544;51.666;6.634;2023-02-25T12:37:47;6.13;;;2.00;;
12958;SDS011;6544;51.666;6.634;2023-02-25T12:40:30;6.47;;;2.10;;
12958;SDS011;6544;51.666;6.634;2023-02-25T12:43:11;9.80;;;2.47;;
12958;SDS011;6544;51.666;6.634;2023-02-25T12:45:55;9.43;;;2.50;;
12958;SDS011;6544;51.666;6.634;2023-02-25T12:49:03;11.53;;;2.60;;
12958;SDS011;6544;51.666;6.634;2023-02-25T12:51:55;5.73;;;2.50;;
12958;SDS011;6544;51.666;6.634;2023-02-25T12:54:49;7.03;;;2.03;;
12958;SDS011;6544;51.666;6.634;2023-02-25T12:57:40;6.83;;;2.33;;
12958;SDS011;6544;51.666;6.634;2023-02-25T13:03:26;5.03;;;2.07;;
12958;SDS011;6544;51.666;6.634;2023-02-25T13:06:17;6.90;;;2.13;;
12958;SDS011;6544;51.666;6.634;2023-02-25T13:08:57;5.93;;;2.13;;
12958;SDS011;6544;51.666;6.634;2023-02-25T13:11:42;6.20;;;1.97;;
12958;SDS011;6544;51.666;6.634;2023-02-25T13:14:22;6.83;;;1.97;;
12958;SDS011;6544;51.666;6.634;2023-02-25T13:17:10;4.47;;;1.70;;
12958;SDS011;6544;51.666;6.634;2023-02-25T13:22:51;7.32;;;2.10;;
12958;SDS011;6544;51.666;6.634;2023-02-25T13:25:30;9.23;;;2.17;;
12958;SDS011;6544;51.666;6.634;2023-02-25T13:28:16;5.23;;;1.80;;
12958;SDS011;6544;51.666;6.634;2023-02-25T13:30:56;4.73;;;1.83;;
12958;SDS011;6544;51.666;6.634;2023-02-25T13:33:42;3.93;;;1.80;;
12958;SDS011;6544;51.666;6.634;2023-02-25T13:36:27;4.30;;;1.83;;
12958;SDS011;6544;51.666;6.634;2023-02-25T13:39:10;4.43;;;2.10;;
12958;SDS011;6544;51.666;6.634;2023-02-25T13:41:51;3.37;;;1.67;;
12958;SDS011;6544;51.666;6.634;2023-02-25T13:44:50;6.30;;;2.00;;
12958;SDS011;6544;51.666;6.634;2023-02-25T13:47:48;3.90;;;1.80;;
12958;SDS011;6544;51.666;6.634;2023-02-25T13:50:28;9.43;;;2.10;;
12958;SDS011;6544;51.666;6.634;2023-02-25T13:56:05;5.30;;;2.25;;
12958;SDS011;6544;51.666;6.634;2023-02-25T14:01:36;7.73;;;2.07;;
12958;SDS011;6544;51.666;6.634;2023-02-25T14:07:22;6.53;;;2.40;;
12958;SDS011;6544;51.666;6.634;2023-02-25T14:13:03;10.93;;;2.37;;
12958;SDS011;6544;51.666;6.634;2023-02-25T14:15:43;5.83;;;2.30;;
12958;SDS011;6544;51.666;6.634;2023-02-25T14:18:23;5.53;;;2.10;;
12958;SDS011;6544;51.666;6.634;2023-02-25T14:21:09;3.63;;;1.80;;
12958;SDS011;6544;51.666;6.634;2023-02-25T14:23:56;3.73;;;1.60;;
12958;SDS011;6544;51.666;6.634;2023-02-25T14:26:31;7.03;;;1.83;;
12958;SDS011;6544;51.666;6.634;2023-02-25T14:29:19;6.40;;;1.70;;
12958;SDS011;6544;51.666;6.634;2023-02-25T14:31:55;4.03;;;1.70;;
12958;SDS011;6544;51.666;6.634;2023-02-25T14:34:41;3.53;;;1.67;;
12958;SDS011;6544;51.666;6.634;2023-02-25T14:37:32;3.30;;;1.40;;
12958;SDS011;6544;51.666;6.634;2023-02-25T14:40:16;4.30;;;1.37;;
12958;SDS011;6544;51.666;6.634;2023-02-25T14:43:01;2.23;;;1.40;;
12958;SDS011;6544;51.666;6.634;2023-02-25T14:45:41;4.00;;;1.40;;
12958;SDS011;6544;51.666;6.634;2023-02-25T14:48:13;2.93;;;1.70;;
12958;SDS011;6544;51.666;6.634;2023-02-25T14:50:45;4.63;;;1.70;;
12958;SDS011;6544;51.666;6.634;2023-02-25T14:53:20;5.20;;;1.50;;
12958;SDS011;6544;51.666;6.634;2023-02-25T15:02:26;4.43;;;1.70;;
12958;SDS011;6544;51.666;6.634;2023-02-25T15:08:34;9.23;;;3.57;;
12958;SDS011;6544;51.666;6.634;2023-02-25T15:11:25;4.47;;;1.90;;
12958;SDS011;6544;51.666;6.634;2023-02-25T15:14:13;5.50;;;1.67;;
12958;SDS011;6544;51.666;6.634;2023-02-25T15:17:01;3.67;;;1.70;;
12958;SDS011;6544;51.666;6.634;2023-02-25T15:19:48;6.23;;;1.87;;
12958;SDS011;6544;51.666;6.634;2023-02-25T15:22:24;6.33;;;1.60;;
12958;SDS011;6544;51.666;6.634;2023-02-25T15:24:53;5.60;;;2.10;;
12958;SDS011;6544;51.666;6.634;2023-02-25T15:27:47;6.27;;;2.00;;
12958;SDS011;6544;51.666;6.634;2023-02-25T15:30:16;6.70;;;2.00;;
12958;SDS011;6544;51.666;6.634;2023-02-25T15:32:48;3.57;;;1.70;;
12958;SDS011;6544;51.666;6.634;2023-02-25T15:35:23;5.33;;;2.10;;
12958;SDS011;6544;51.666;6.634;2023-02-25T15:38:17;5.80;;;2.10;;
12958;SDS011;6544;51.666;6.634;2023-02-25T15:40:46;5.07;;;2.30;;
12958;SDS011;6544;51.666;6.634;2023-02-25T15:49:16;4.97;;;1.80;;
12958;SDS011;6544;51.666;6.634;2023-02-25T15:51:52;7.50;;;2.20;;
12958;SDS011;6544;51.666;6.634;2023-02-25T15:54:44;9.40;;;1.90;;
12958;SDS011;6544;51.666;6.634;2023-02-25T15:57:32;7.47;;;1.80;;
12958;SDS011;6544;51.666;6.634;2023-02-25T16:00:01;7.10;;;2.00;;
12958;SDS011;6544;51.666;6.634;2023-02-25T16:05:20;6.93;;;3.17;;
12958;SDS011;6544;51.666;6.634;2023-02-25T16:07:50;7.23;;;3.27;;
12958;SDS011;6544;51.666;6.634;2023-02-25T16:10:28;8.03;;;2.37;;
12958;SDS011;6544;51.666;6.634;2023-02-25T16:12:58;7.27;;;2.37;;
12958;SDS011;6544;51.666;6.634;2023-02-25T16:15:28;5.87;;;2.63;;
12958;SDS011;6544;51.666;6.634;2023-02-25T16:18:11;7.07;;;2.67;;
12958;SDS011;6544;51.666;6.634;2023-02-25T16:20:43;7.03;;;2.00;;
12958;SDS011;6544;51.666;6.634;2023-02-25T16:23:15;3.93;;;1.80;;